Al-Kharj, Saudi Arabia

11:18 AM AST on August 31, 2014 (GMT +0300)
Prince Sultan Air Base | Change Station
CLOSE
Current Station
Airport
Location: Al Kharj Air Base,
Elevation: 1640 ft
Nearby Weather Stations

Elev 1640 ft 24.07 °N, 47.58 °E | Updated 18 minutes ago

Clear
Clear
106 °F
Feels Like 106 °F
N
4
Wind Variable Wind from West

Today
High -- | Low -- °F
--% Chance of Precip.
Yesterday
High -- | Low -- °F
Precip. -- in
5:31 AM 6:10 PM
Waxing Crescent, 29% visible
Pressure 29.74 in
Visibility -9999.0 miles
Clouds
Dew Point 41 °F
Humidity 11%
Rainfall 0.00 in
Snow Depth Not available.
UV Not available.
Pollen Not available.
Air Quality Not available.
Flu Activity Not available.
METAR OEKJ 310800Z 26003KT CAVOK 41/05 Q1007

More Conditions Fewer Conditions

Pressure 29.74 in
Visibility -9999.0 miles
Clouds
Dew Point 41 °F
Humidity 11%
Rainfall 0.00 in
Snow Depth Not available.
UV Not available.
Pollen Not available.
Air Quality Not available.
Flu Activity Not available.
METAR OEKJ 310800Z 26003KT CAVOK 41/05 Q1007

More Conditions Fewer Conditions

10-Day Weather Forecast

Almanac

Astronomy

Aug. 31, 2014 Rise Set
Actual Time 5:31 AM AST 6:10 PM AST
Civil Twilight 5:08 AM AST 6:33 PM AST
Nautical Twilight 4:41 AM AST 7:00 PM AST
Astronomical Twilight 4:14 AM AST 7:27 PM AST
Moon 10:18 AM AST 9:48 PM AST
Length of Visible Light 13h 24m
Length of Day
12h 38m
Tomorrow will be 1m 21s shorter.
Waxing Crescent, 29% of the Moon is Illuminated
Today
Waxing Crescent
Sep 2
First Quarter
Sep 8
Full
Sep 15
Last Quarter
Sep 24
New

Yesterday's Extremes

Country Highs Country Lows

Community

WunderPhotos

Upload Photos

1,748,820 photos uploaded!

Nearby

Snow Depth

Not available.

Earthquake Activity

City Distance Mag. Time & Date
No recent earthquake activity has been reported nearby.
Minimum magnitude displayed is 2.5.

Coastal Water Temperatures

Place Temperature
No Stations Reporting

Nearby Weather Stations